sensor_id;sensor_type;location;lat;lon;timestamp;pressure;altitude;pressure_sealevel;temperature;humidity
29163;BME280;20331;53.144;8.208;2023-07-02T00:07:42;100478.78;;;17.76;83.18
29163;BME280;20331;53.144;8.208;2023-07-02T00:18:03;100470.94;;;17.76;83.15
29163;BME280;20331;53.144;8.208;2023-07-02T00:28:25;100471.66;;;17.78;83.85
29163;BME280;20331;53.144;8.208;2023-07-02T00:38:48;100480.53;;;17.75;83.00
29163;BME280;20331;53.144;8.208;2023-07-02T00:49:10;100482.31;;;17.75;82.74
29163;BME280;20331;53.144;8.208;2023-07-02T00:59:32;100477.09;;;17.75;82.09
29163;BME280;20331;53.144;8.208;2023-07-02T01:09:59;100484.41;;;17.70;81.61
29163;BME280;20331;53.144;8.208;2023-07-02T01:20:21;100472.00;;;17.59;81.69
29163;BME280;20331;53.144;8.208;2023-07-02T01:30:43;100477.94;;;17.49;81.70
29163;BME280;20331;53.144;8.208;2023-07-02T01:41:05;100466.72;;;17.33;81.29
29163;BME280;20331;53.144;8.208;2023-07-02T01:51:26;100479.00;;;17.32;81.28
29163;BME280;20331;53.144;8.208;2023-07-02T02:01:48;100494.78;;;17.17;80.73
29163;BME280;20331;53.144;8.208;2023-07-02T02:12:09;100495.56;;;17.04;81.37
29163;BME280;20331;53.144;8.208;2023-07-02T02:22:31;100497.78;;;16.96;81.43
29163;BME280;20331;53.144;8.208;2023-07-02T02:32:53;100493.88;;;16.89;81.78
29163;BME280;20331;53.144;8.208;2023-07-02T02:43:15;100499.56;;;16.82;82.09
29163;BME280;20331;53.144;8.208;2023-07-02T02:53:38;100506.78;;;16.64;82.61
29163;BME280;20331;53.144;8.208;2023-07-02T03:03:59;100510.00;;;16.54;82.68
29163;BME280;20331;53.144;8.208;2023-07-02T03:14:21;100508.59;;;16.48;82.40
29163;BME280;20331;53.144;8.208;2023-07-02T03:24:43;100521.16;;;16.42;82.72
29163;BME280;20331;53.144;8.208;2023-07-02T03:35:05;100523.38;;;16.34;83.02
29163;BME280;20331;53.144;8.208;2023-07-02T03:45:26;100511.69;;;16.25;82.86
29163;BME280;20331;53.144;8.208;2023-07-02T03:55:48;100516.16;;;16.23;82.67
29163;BME280;20331;53.144;8.208;2023-07-02T04:06:10;100532.78;;;16.22;82.61
29163;BME280;20331;53.144;8.208;2023-07-02T04:16:31;100533.06;;;16.32;82.09
29163;BME280;20331;53.144;8.208;2023-07-02T04:26:53;100552.38;;;16.29;81.81
29163;BME280;20331;53.144;8.208;2023-07-02T04:37:35;100537.19;;;16.36;80.95
29163;BME280;20331;53.144;8.208;2023-07-02T04:47:57;100557.06;;;16.38;80.88
29163;BME280;20331;53.144;8.208;2023-07-02T04:58:19;100555.97;;;16.42;80.41
29163;BME280;20331;53.144;8.208;2023-07-02T05:08:40;100565.16;;;16.49;79.84
29163;BME280;20331;53.144;8.208;2023-07-02T05:19:03;100566.28;;;16.59;79.95
29163;BME280;20331;53.144;8.208;2023-07-02T05:29:25;100569.19;;;16.69;78.16
29163;BME280;20331;53.144;8.208;2023-07-02T05:39:47;100567.44;;;16.83;77.71
29163;BME280;20331;53.144;8.208;2023-07-02T05:50:08;100572.84;;;16.94;77.80
29163;BME280;20331;53.144;8.208;2023-07-02T06:00:30;100582.59;;;17.06;76.98
29163;BME280;20331;53.144;8.208;2023-07-02T06:10:52;100590.72;;;17.30;75.26
29163;BME280;20331;53.144;8.208;2023-07-02T06:21:14;100581.38;;;17.26;75.67
29163;BME280;20331;53.144;8.208;2023-07-02T06:31:35;100595.19;;;17.42;75.88
29163;BME280;20331;53.144;8.208;2023-07-02T06:41:57;100605.75;;;17.55;75.12
29163;BME280;20331;53.144;8.208;2023-07-02T06:52:18;100614.53;;;17.68;72.67
29163;BME280;20331;53.144;8.208;2023-07-02T07:02:41;100636.34;;;17.95;69.91
29163;BME280;20331;53.144;8.208;2023-07-02T07:13:02;100647.28;;;18.01;67.54
29163;BME280;20331;53.144;8.208;2023-07-02T07:23:24;100678.56;;;18.17;68.53
29163;BME280;20331;53.144;8.208;2023-07-02T07:33:46;100668.72;;;18.21;66.72
29163;BME280;20331;53.144;8.208;2023-07-02T07:44:10;100662.63;;;18.34;66.11
29163;BME280;20331;53.144;8.208;2023-07-02T07:54:32;100657.00;;;18.40;68.18
29163;BME280;20331;53.144;8.208;2023-07-02T08:04:54;100691.38;;;18.62;66.22
29163;BME280;20331;53.144;8.208;2023-07-02T08:15:15;100679.25;;;18.86;64.77
29163;BME280;20331;53.144;8.208;2023-07-02T08:25:37;100670.69;;;19.10;64.14
29163;BME280;20331;53.144;8.208;2023-07-02T08:35:59;100688.00;;;19.25;61.63
29163;BME280;20331;53.144;8.208;2023-07-02T08:46:22;100681.94;;;19.24;64.12
29163;BME280;20331;53.144;8.208;2023-07-02T08:56:44;100692.94;;;19.17;62.77
29163;BME280;20331;53.144;8.208;2023-07-02T09:07:08;100707.44;;;19.22;64.41
29163;BME280;20331;53.144;8.208;2023-07-02T09:17:34;100711.78;;;19.61;65.24
29163;BME280;20331;53.144;8.208;2023-07-02T09:27:56;100719.03;;;19.70;62.54
29163;BME280;20331;53.144;8.208;2023-07-02T09:38:19;100716.25;;;19.84;60.83
29163;BME280;20331;53.144;8.208;2023-07-02T09:48:41;100724.88;;;19.86;56.04
29163;BME280;20331;53.144;8.208;2023-07-02T09:59:02;100739.41;;;19.54;57.01
29163;BME280;20331;53.144;8.208;2023-07-02T10:09:43;100735.59;;;19.58;57.40
29163;BME280;20331;53.144;8.208;2023-07-02T10:20:06;100756.09;;;19.90;58.75
29163;BME280;20331;53.144;8.208;2023-07-02T10:30:34;100759.78;;;19.75;59.49
29163;BME280;20331;53.144;8.208;2023-07-02T10:40:56;100748.47;;;20.24;59.03
29163;BME280;20331;53.144;8.208;2023-07-02T10:51:19;100759.94;;;20.10;58.17
29163;BME280;20331;53.144;8.208;2023-07-02T11:01:41;100771.00;;;20.51;60.47
29163;BME280;20331;53.144;8.208;2023-07-02T11:12:03;100807.38;;;20.21;59.69
29163;BME280;20331;53.144;8.208;2023-07-02T11:22:32;100801.66;;;20.40;58.58
29163;BME280;20331;53.144;8.208;2023-07-02T11:32:58;100807.66;;;20.42;60.85
29163;BME280;20331;53.144;8.208;2023-07-02T11:43:19;100798.75;;;20.19;58.56
29163;BME280;20331;53.144;8.208;2023-07-02T11:53:41;100784.75;;;20.67;56.84
29163;BME280;20331;53.144;8.208;2023-07-02T12:04:03;100790.19;;;21.00;56.37
29163;BME280;20331;53.144;8.208;2023-07-02T12:14:25;100813.28;;;20.84;59.16
29163;BME280;20331;53.144;8.208;2023-07-02T12:24:46;100795.41;;;20.77;59.02
29163;BME280;20331;53.144;8.208;2023-07-02T12:35:08;100836.41;;;20.56;62.31
29163;BME280;20331;53.144;8.208;2023-07-02T12:45:30;100844.63;;;20.51;61.41
29163;BME280;20331;53.144;8.208;2023-07-02T12:55:54;100840.56;;;20.47;58.63
29163;BME280;20331;53.144;8.208;2023-07-02T13:06:16;100859.50;;;20.27;59.40
29163;BME280;20331;53.144;8.208;2023-07-02T13:16:38;100858.31;;;20.56;60.73
29163;BME280;20331;53.144;8.208;2023-07-02T13:27:02;100864.81;;;20.63;55.07
29163;BME280;20331;53.144;8.208;2023-07-02T13:37:23;100871.31;;;20.70;58.46
29163;BME280;20331;53.144;8.208;2023-07-02T13:47:45;100877.00;;;20.64;54.83
29163;BME280;20331;53.144;8.208;2023-07-02T13:58:07;100896.56;;;20.60;53.91
29163;BME280;20331;53.144;8.208;2023-07-02T14:08:29;100887.28;;;20.80;54.09
29163;BME280;20331;53.144;8.208;2023-07-02T14:18:51;100905.41;;;20.59;56.01
29163;BME280;20331;53.144;8.208;2023-07-02T14:29:13;100910.06;;;20.43;54.95
29163;BME280;20331;53.144;8.208;2023-07-02T14:39:34;100917.75;;;20.21;57.35
29163;BME280;20331;53.144;8.208;2023-07-02T14:49:56;100919.75;;;20.30;58.70
29163;BME280;20331;53.144;8.208;2023-07-02T15:00:18;100921.22;;;20.47;56.88
29163;BME280;20331;53.144;8.208;2023-07-02T15:10:40;100911.66;;;20.58;56.48
29163;BME280;20331;53.144;8.208;2023-07-02T15:21:02;100911.66;;;20.58;58.01
29163;BME280;20331;53.144;8.208;2023-07-02T15:31:24;100925.00;;;20.55;56.35
29163;BME280;20331;53.144;8.208;2023-07-02T15:41:45;100927.13;;;20.25;56.88
29163;BME280;20331;53.144;8.208;2023-07-02T15:52:07;100925.63;;;20.21;58.03
29163;BME280;20331;53.144;8.208;2023-07-02T16:02:29;100932.56;;;20.22;59.35
29163;BME280;20331;53.144;8.208;2023-07-02T16:12:51;100931.94;;;20.31;55.52
29163;BME280;20331;53.144;8.208;2023-07-02T16:23:13;100940.56;;;20.33;56.18
29163;BME280;20331;53.144;8.208;2023-07-02T16:33:35;100940.34;;;20.24;57.89
29163;BME280;20331;53.144;8.208;2023-07-02T16:43:58;100945.75;;;19.95;59.08
29163;BME280;20331;53.144;8.208;2023-07-02T16:54:21;100960.66;;;19.82;59.14
29163;BME280;20331;53.144;8.208;2023-07-02T17:04:43;100951.91;;;19.82;58.60
29163;BME280;20331;53.144;8.208;2023-07-02T17:15:05;100945.25;;;20.03;56.51
29163;BME280;20331;53.144;8.208;2023-07-02T17:25:28;100965.69;;;20.25;53.00
29163;BME280;20331;53.144;8.208;2023-07-02T17:35:50;100950.63;;;20.01;53.78
29163;BME280;20331;53.144;8.208;2023-07-02T17:46:12;100952.06;;;19.93;53.34
29163;BME280;20331;53.144;8.208;2023-07-02T17:56:34;100954.91;;;19.63;55.24
29163;BME280;20331;53.144;8.208;2023-07-02T18:07:02;100951.59;;;19.47;53.65
29163;BME280;20331;53.144;8.208;2023-07-02T18:17:24;100950.31;;;19.40;55.36
29163;BME280;20331;53.144;8.208;2023-07-02T18:28:01;100937.97;;;19.28;53.64
29163;BME280;20331;53.144;8.208;2023-07-02T18:38:23;100946.88;;;19.26;57.63
29163;BME280;20331;53.144;8.208;2023-07-02T18:48:45;100937.50;;;19.22;59.18
29163;BME280;20331;53.144;8.208;2023-07-02T18:59:07;100945.84;;;19.14;58.12
29163;BME280;20331;53.144;8.208;2023-07-02T19:09:29;100944.66;;;19.05;58.95
29163;BME280;20331;53.144;8.208;2023-07-02T19:19:51;100939.69;;;19.01;58.21
29163;BME280;20331;53.144;8.208;2023-07-02T19:30:13;100939.84;;;18.85;59.81
29163;BME280;20331;53.144;8.208;2023-07-02T19:40:35;100935.53;;;18.70;60.51
29163;BME280;20331;53.144;8.208;2023-07-02T19:51:01;100935.19;;;18.62;58.08
29163;BME280;20331;53.144;8.208;2023-07-02T20:01:23;100925.09;;;18.41;60.89
29163;BME280;20331;53.144;8.208;2023-07-02T20:11:45;100933.44;;;18.33;60.73
29163;BME280;20331;53.144;8.208;2023-07-02T20:22:07;100925.00;;;18.14;60.92
29163;BME280;20331;53.144;8.208;2023-07-02T20:32:30;100915.44;;;17.99;61.54
29163;BME280;20331;53.144;8.208;2023-07-02T20:42:52;100913.00;;;17.96;62.71
29163;BME280;20331;53.144;8.208;2023-07-02T20:53:17;100903.63;;;17.92;62.62
29163;BME280;20331;53.144;8.208;2023-07-02T21:03:39;100927.06;;;17.79;61.97
29163;BME280;20331;53.144;8.208;2023-07-02T21:14:02;100926.84;;;17.68;63.53
29163;BME280;20331;53.144;8.208;2023-07-02T21:24:24;100911.03;;;17.56;62.60
29163;BME280;20331;53.144;8.208;2023-07-02T21:34:46;100908.47;;;17.39;63.14
29163;BME280;20331;53.144;8.208;2023-07-02T21:45:07;100907.31;;;17.29;64.05
29163;BME280;20331;53.144;8.208;2023-07-02T21:55:30;100906.88;;;17.36;62.78
29163;BME280;20331;53.144;8.208;2023-07-02T22:05:53;100887.41;;;17.26;63.38
29163;BME280;20331;53.144;8.208;2023-07-02T22:16:15;100896.88;;;17.29;64.00
29163;BME280;20331;53.144;8.208;2023-07-02T22:26:37;100882.84;;;17.30;63.31
29163;BME280;20331;53.144;8.208;2023-07-02T22:36:59;100871.81;;;17.25;63.48
29163;BME280;20331;53.144;8.208;2023-07-02T22:47:20;100870.09;;;17.24;63.72
29163;BME280;20331;53.144;8.208;2023-07-02T22:57:42;100842.44;;;17.20;64.66
29163;BME280;20331;53.144;8.208;2023-07-02T23:08:07;100838.31;;;17.16;64.25
29163;BME280;20331;53.144;8.208;2023-07-02T23:18:28;100819.25;;;17.14;65.09
29163;BME280;20331;53.144;8.208;2023-07-02T23:28:55;100806.94;;;17.16;65.21
29163;BME280;20331;53.144;8.208;2023-07-02T23:39:17;100797.81;;;17.23;65.47
29163;BME280;20331;53.144;8.208;2023-07-02T23:49:41;100801.00;;;17.28;65.28
